Time;durP1;ratioP1;P1;durP2;ratioP2;P2;SDS_P1;SDS_P2;PMS_P1;PMS_P2;Temp;Humidity;BMP_temperature;BMP_pressure;BME280_temperature;BME280_humidity;BME280_pressure;Samples;Min_cycle;Max_cycle;Signal;HPM_P1;HPM_P2
2022/08/04 00:01:30;;;;;;;;;;;;;;;24.13;80.15;97063.02;619511;229;65206;-71
2022/08/04 00:04:02;;;;;;;;;;;;;;;24.14;80.17;97067.31;619614;229;67798;-71
2022/08/04 00:06:35;;;;;;;;;;;;;;;24.14;80.18;97064.63;619643;229;66858;-66
2022/08/04 00:09:04;;;;;;;;;;;;;;;24.13;80.20;97056.85;610096;229;63800;-66
2022/08/04 00:11:33;;;;;;;;;;;;;;;24.12;80.22;97064.11;619529;229;67244;-66
2022/08/04 00:14:04;;;;;;;;;;;;;;;24.13;80.14;97065.70;619669;229;65251;-66
2022/08/04 00:16:33;;;;;;;;;;;;;;;24.13;80.22;97060.33;619622;229;65144;-66
2022/08/04 00:19:05;;;;;;;;;;;;;;;24.13;80.20;97063.02;619428;229;67068;-66
2022/08/04 00:21:34;;;;;;;;;;;;;;;24.13;80.39;97063.02;619622;229;65129;-66
2022/08/04 00:24:02;;;;;;;;;;;;;;;24.13;80.44;97060.33;619637;229;64872;-66
2022/08/04 00:26:30;;;;;;;;;;;;;;;24.13;80.45;97065.70;619637;229;67117;-66
2022/08/04 00:28:58;;;;;;;;;;;;;;;24.12;80.47;97057.95;619628;229;67006;-66
2022/08/04 00:31:26;;;;;;;;;;;;;;;24.13;80.39;97071.06;619643;229;64838;-65
2022/08/04 00:33:54;;;;;;;;;;;;;;;24.12;80.42;97061.42;619643;229;65094;-66
2022/08/04 00:36:21;;;;;;;;;;;;;;;24.12;80.37;97058.74;619631;229;66966;-66
2022/08/04 00:38:50;;;;;;;;;;;;;;;24.13;80.45;97062.22;619654;229;64939;-66
2022/08/04 00:41:31;;;;;;;;;;;;;;;24.12;80.47;97064.11;619652;229;66921;-66
2022/08/04 00:44:06;;;;;;;;;;;;;;;24.12;80.58;97061.42;619570;229;66824;-66
2022/08/04 00:46:35;;;;;;;;;;;;;;;24.13;80.62;97059.53;616877;229;64737;-66
2022/08/04 00:49:19;;;;;;;;;;;;;;;24.12;80.69;97058.74;619356;229;65230;-66
2022/08/04 00:51:48;;;;;;;;;;;;;;;24.11;80.62;97059.81;619303;229;64666;-66
2022/08/04 00:54:24;;;;;;;;;;;;;;;24.11;80.70;97059.81;619637;229;62426;-65
2022/08/04 00:56:56;;;;;;;;;;;;;;;24.11;80.62;97061.70;619638;229;67135;-65
2022/08/04 00:59:28;;;;;;;;;;;;;;;24.11;80.74;97053.65;619707;229;66980;-65
2022/08/04 01:02:00;;;;;;;;;;;;;;;24.11;80.78;97059.81;619287;229;65069;-65
2022/08/04 01:04:30;;;;;;;;;;;;;;;24.11;80.94;97057.13;619665;229;67105;-65
2022/08/04 01:07:14;;;;;;;;;;;;;;;24.10;81.00;97055.54;619665;229;67053;-65
2022/08/04 01:09:45;;;;;;;;;;;;;;;24.11;80.95;97067.86;619682;229;63651;-65
2022/08/04 01:12:27;;;;;;;;;;;;;;;24.11;81.00;97059.02;619347;229;64537;-66
2022/08/04 01:14:56;;;;;;;;;;;;;;;24.11;80.99;97064.39;619621;229;64840;-66
2022/08/04 01:17:37;;;;;;;;;;;;;;;24.10;81.04;97062.80;619684;229;64683;-66
2022/08/04 01:20:09;;;;;;;;;;;;;;;24.11;81.12;97070.55;619686;229;67142;-65
2022/08/04 01:22:44;;;;;;;;;;;;;;;24.10;81.19;97065.48;619670;229;66891;-66
2022/08/04 01:25:19;;;;;;;;;;;;;;;24.11;81.19;97072.45;619645;229;62736;-66
2022/08/04 01:27:49;;;;;;;;;;;;;;;24.11;81.17;97072.45;619677;229;67117;-66
2022/08/04 01:30:16;;;;;;;;;;;;;;;24.10;81.20;97071.66;619669;229;66587;-66
2022/08/04 01:32:45;;;;;;;;;;;;;;;24.10;81.23;97068.97;619657;229;64856;-66
2022/08/04 01:35:14;;;;;;;;;;;;;;;24.10;81.28;97071.66;619611;228;64740;-66
2022/08/04 01:37:46;;;;;;;;;;;;;;;24.10;81.30;97076.23;618684;229;64883;-71
2022/08/04 01:40:15;;;;;;;;;;;;;;;24.10;81.36;97070.86;619673;229;64958;-71
2022/08/04 01:42:44;;;;;;;;;;;;;;;24.10;81.43;97074.34;619674;229;67074;-71
2022/08/04 01:45:12;;;;;;;;;;;;;;;24.10;81.44;97071.66;619676;229;67010;-71
2022/08/04 01:47:41;;;;;;;;;;;;;;;24.10;81.47;97076.23;619670;229;65137;-71
2022/08/04 01:50:10;;;;;;;;;;;;;;;24.10;81.42;97077.02;619647;229;64466;-71
2022/08/04 01:52:38;;;;;;;;;;;;;;;24.09;81.46;97075.44;619659;229;66815;-71
2022/08/04 01:55:08;;;;;;;;;;;;;;;24.10;81.40;97079.70;619692;229;65235;-71
2022/08/04 01:57:43;;;;;;;;;;;;;;;24.10;81.45;97076.23;619687;229;64782;-71
2022/08/04 02:00:13;;;;;;;;;;;;;;;24.09;81.50;97075.44;619661;229;65058;-70
2022/08/04 02:02:41;;;;;;;;;;;;;;;24.09;81.47;97072.75;619588;228;64913;-65
2022/08/04 02:05:12;;;;;;;;;;;;;;;24.09;81.41;97071.92;619685;229;67386;-65
2022/08/04 02:07:41;;;;;;;;;;;;;;;24.09;81.45;97074.61;619663;229;66919;-65
2022/08/04 02:10:10;;;;;;;;;;;;;;;24.10;81.49;97081.59;619663;229;64899;-66
2022/08/04 02:12:42;;;;;;;;;;;;;;;24.08;81.48;97076.50;618748;229;67114;-66
2022/08/04 02:15:11;;;;;;;;;;;;;;;24.09;81.53;97085.35;618036;229;67040;-66
2022/08/04 02:17:41;;;;;;;;;;;;;;;24.08;81.54;97079.19;611096;230;62510;-66
2022/08/04 02:20:10;;;;;;;;;;;;;;;24.08;81.57;97075.71;615139;229;64603;-66
2022/08/04 02:22:40;;;;;;;;;;;;;;;24.08;81.56;97068.45;615121;229;66823;-66
2022/08/04 02:25:09;;;;;;;;;;;;;;;24.08;81.58;97078.39;614940;229;64904;-66
2022/08/04 02:27:47;;;;;;;;;;;;;;;24.08;81.56;97075.71;615151;230;67009;-66
2022/08/04 02:30:15;;;;;;;;;;;;;;;24.08;81.50;97075.71;610347;230;66676;-66
2022/08/04 02:32:43;;;;;;;;;;;;;;;24.07;81.48;97074.92;615227;230;64955;-66
2022/08/04 02:35:12;;;;;;;;;;;;;;;24.08;81.49;97078.39;615178;230;64285;-66
2022/08/04 02:37:41;;;;;;;;;;;;;;;24.07;81.49;97077.60;615200;230;66854;-66
2022/08/04 02:40:10;;;;;;;;;;;;;;;24.08;81.53;97079.19;615085;229;65188;-66
2022/08/04 02:42:38;;;;;;;;;;;;;;;24.07;81.53;97077.60;615155;230;66821;-66
2022/08/04 02:45:07;;;;;;;;;;;;;;;24.06;81.52;97067.96;615203;230;66606;-66
2022/08/04 02:47:35;;;;;;;;;;;;;;;24.08;81.42;97073.82;615157;230;62965;-66
2022/08/04 02:50:03;;;;;;;;;;;;;;;24.07;81.54;97069.55;615172;230;68178;-66
2022/08/04 02:52:31;;;;;;;;;;;;;;;24.07;81.45;97068.76;615175;230;65023;-66
2022/08/04 02:55:00;;;;;;;;;;;;;;;24.07;81.46;97063.39;615192;230;65842;-66
2022/08/04 02:57:29;;;;;;;;;;;;;;;24.06;81.37;97062.59;615200;230;67038;-66
2022/08/04 03:00:01;;;;;;;;;;;;;;;24.07;81.30;97058.81;615201;230;64739;-66
2022/08/04 03:02:30;;;;;;;;;;;;;;;24.07;81.36;97066.07;615152;229;65216;-65
2022/08/04 03:04:59;;;;;;;;;;;;;;;24.07;81.52;97064.18;615125;229;65855;-65
2022/08/04 03:07:41;;;;;;;;;;;;;;;24.06;81.59;97065.28;615175;230;64417;-66
2022/08/04 03:10:20;;;;;;;;;;;;;;;24.07;81.69;97069.55;615221;230;62848;-66
2022/08/04 03:12:49;;;;;;;;;;;;;;;24.06;81.74;97067.96;601083;229;66915;-66
2022/08/04 03:15:21;;;;;;;;;;;;;;;24.06;81.72;97072.51;615137;229;67401;-66
2022/08/04 03:17:59;;;;;;;;;;;;;;;24.06;81.78;97072.51;614949;229;64975;-66
2022/08/04 03:20:44;;;;;;;;;;;;;;;24.05;81.83;97070.92;615193;230;65074;-66
2022/08/04 03:23:30;;;;;;;;;;;;;;;24.06;81.77;97077.88;615217;230;67221;-66
2022/08/04 03:26:16;;;;;;;;;;;;;;;24.05;81.80;97076.30;615179;230;65359;-66
2022/08/04 03:28:54;;;;;;;;;;;;;;;24.04;81.81;97070.12;615206;230;67134;-66
2022/08/04 03:31:39;;;;;;;;;;;;;;;24.04;81.80;97083.55;614964;229;64761;-66
2022/08/04 03:34:08;;;;;;;;;;;;;;;24.05;81.82;97076.30;615175;230;65259;-66
2022/08/04 03:36:49;;;;;;;;;;;;;;;24.04;81.88;97088.13;615028;229;67241;-66
2022/08/04 03:39:34;;;;;;;;;;;;;;;24.03;81.93;97081.94;615172;230;66668;-71
2022/08/04 03:42:03;;;;;;;;;;;;;;;24.04;81.89;97086.23;615192;230;65246;-71
2022/08/04 03:44:47;;;;;;;;;;;;;;;24.03;81.93;97081.94;615175;230;67031;-71
2022/08/04 03:47:16;;;;;;;;;;;;;;;24.03;81.95;97079.25;615197;230;64518;-72
2022/08/04 03:49:48;;;;;;;;;;;;;;;24.03;81.81;97075.77;606289;229;65294;-72
2022/08/04 03:55:40;;;;;;;;;;;;;;;24.03;81.78;97078.46;615179;230;64697;-70
2022/08/04 03:58:15;;;;;;;;;;;;;;;24.03;81.84;97083.83;615178;230;62888;-70
2022/08/04 04:00:47;;;;;;;;;;;;;;;24.02;81.90;97085.72;615181;230;64837;-70
2022/08/04 04:03:19;;;;;;;;;;;;;;;24.03;81.96;97089.20;615208;230;66834;-72
2022/08/04 04:06:01;;;;;;;;;;;;;;;24.02;81.96;97090.30;615153;230;65167;-72
2022/08/04 04:08:45;;;;;;;;;;;;;;;24.02;81.95;97091.09;615204;230;64959;-70
2022/08/04 04:11:26;;;;;;;;;;;;;;;24.02;82.04;97090.30;615166;230;67314;-65
2022/08/04 04:14:14;;;;;;;;;;;;;;;24.02;82.00;97098.34;615126;230;62705;-65
2022/08/04 04:16:55;;;;;;;;;;;;;;;24.01;82.08;97086.81;615075;229;64761;-65
2022/08/04 04:19:27;;;;;;;;;;;;;;;24.02;82.01;97090.30;615211;230;64784;-65
2022/08/04 04:22:13;;;;;;;;;;;;;;;24.01;82.02;97089.50;615185;230;65253;-70
2022/08/04 04:24:59;;;;;;;;;;;;;;;24.02;82.05;97090.30;615193;230;64938;-70
2022/08/04 04:27:44;;;;;;;;;;;;;;;24.01;82.13;97088.68;615205;230;64847;-70
2022/08/04 04:30:32;;;;;;;;;;;;;;;24.01;82.16;97089.50;615203;230;65132;-70
2022/08/04 04:33:01;;;;;;;;;;;;;;;24.01;82.16;97094.88;614718;230;64644;-70
2022/08/04 04:35:33;;;;;;;;;;;;;;;24.01;82.17;97094.88;615062;229;64868;-70
2022/08/04 04:38:02;;;;;;;;;;;;;;;24.00;82.22;97095.94;615148;230;62958;-70
2022/08/04 04:40:47;;;;;;;;;;;;;;;24.00;82.08;97098.63;615189;230;67286;-70
2022/08/04 04:43:26;;;;;;;;;;;;;;;24.00;82.05;97093.26;615155;230;64861;-70
2022/08/04 04:45:55;;;;;;;;;;;;;;;24.01;81.99;97099.42;615163;230;65213;-71
2022/08/04 04:48:40;;;;;;;;;;;;;;;24.00;81.95;97098.63;615102;229;67119;-70
2022/08/04 04:51:16;;;;;;;;;;;;;;;24.01;82.00;97102.92;615173;230;67068;-70
2022/08/04 04:53:48;;;;;;;;;;;;;;;24.01;82.01;97104.78;615076;229;63113;-70
2022/08/04 04:56:29;;;;;;;;;;;;;;;24.00;82.06;97100.52;611605;230;64803;-70
2022/08/04 04:58:58;;;;;;;;;;;;;;;24.00;82.02;97103.99;614845;229;67847;-65
2022/08/04 05:01:27;;;;;;;;;;;;;;;24.01;82.02;97102.92;614991;230;65088;-65
2022/08/04 05:03:56;;;;;;;;;;;;;;;24.00;81.96;97097.83;614770;229;67225;-64
2022/08/04 05:06:37;;;;;;;;;;;;;;;24.01;82.05;97096.73;614400;229;66860;-65
2022/08/04 05:09:09;;;;;;;;;;;;;;;24.00;82.06;97098.63;614367;229;63772;-65
2022/08/04 05:11:53;;;;;;;;;;;;;;;24.01;82.11;97102.10;614531;229;67089;-65
2022/08/04 05:14:22;;;;;;;;;;;;;;;24.00;82.19;97093.26;615164;230;67202;-65
2022/08/04 05:16:51;;;;;;;;;;;;;;;24.01;82.28;97100.24;620910;228;64935;-65
2022/08/04 05:19:36;;;;;;;;;;;;;;;24.00;82.32;97095.94;621696;228;67105;-65
2022/08/04 05:22:05;;;;;;;;;;;;;;;24.00;82.32;97097.83;607381;233;64612;-64
2022/08/04 05:24:35;;;;;;;;;;;;;;;23.99;82.33;97102.41;617268;228;62782;-65
2022/08/04 05:27:04;;;;;;;;;;;;;;;23.98;82.25;97103.50;621662;228;67068;-65
2022/08/04 05:29:36;;;;;;;;;;;;;;;23.99;82.29;97102.41;621791;228;65062;-65
2022/08/04 05:32:08;;;;;;;;;;;;;;;23.99;82.21;97091.67;621752;228;62732;-66
2022/08/04 05:34:37;;;;;;;;;;;;;;;23.99;82.14;97094.35;621677;228;67202;-65
2022/08/04 05:37:06;;;;;;;;;;;;;;;23.99;82.06;97097.04;621532;228;66917;-65
2022/08/04 05:39:38;;;;;;;;;;;;;;;24.00;82.08;97103.99;621697;228;67567;-65
2022/08/04 05:42:06;;;;;;;;;;;;;;;23.99;81.91;97109.67;621502;228;64846;-65
2022/08/04 05:44:36;;;;;;;;;;;;;;;23.99;81.91;97113.14;621542;228;67048;-65
2022/08/04 05:47:05;;;;;;;;;;;;;;;24.00;81.94;97111.25;621054;228;64749;-65
2022/08/04 05:49:32;;;;;;;;;;;;;;;24.00;81.93;97109.36;621552;228;66923;-65
2022/08/04 05:52:02;;;;;;;;;;;;;;;24.00;81.92;97119.30;621765;228;66864;-65
2022/08/04 05:54:33;;;;;;;;;;;;;;;23.99;81.99;97115.83;621744;228;64887;-65
2022/08/04 05:57:02;;;;;;;;;;;;;;;23.99;82.00;97106.98;621692;228;67285;-65
2022/08/04 05:59:30;;;;;;;;;;;;;;;23.99;81.97;97112.35;621774;228;64795;-65
2022/08/04 06:01:59;;;;;;;;;;;;;;;23.99;82.03;97115.83;621651;228;64949;-64
2022/08/04 06:04:28;;;;;;;;;;;;;;;23.97;77.71;97112.63;621699;228;67251;-66
2022/08/04 06:06:56;;;;;;;;;;;;;;;24.01;77.84;97110.16;621649;228;64487;-64
2022/08/04 06:09:23;;;;;;;;;;;;;;;24.03;79.62;97116.84;621737;228;62769;-65
2022/08/04 06:11:52;;;;;;;;;;;;;;;24.04;80.03;97098.87;621785;228;65071;-64
2022/08/04 06:14:22;;;;;;;;;;;;;;;24.03;79.38;97114.16;621805;228;67036;-67
2022/08/04 06:16:49;;;;;;;;;;;;;;;24.05;79.75;97105.83;615271;228;65139;-65
2022/08/04 06:19:18;;;;;;;;;;;;;;;24.05;79.98;97103.94;615099;230;66933;-67
2022/08/04 06:21:49;;;;;;;;;;;;;;;24.06;80.13;97102.86;615184;230;66818;-63
2022/08/04 06:24:21;;;;;;;;;;;;;;;24.07;80.31;97100.97;615187;230;62805;-65
2022/08/04 06:26:49;;;;;;;;;;;;;;;24.07;76.32;97099.08;615234;230;64903;-64
2022/08/04 06:29:34;;;;;;;;;;;;;;;24.08;76.08;97099.88;614910;230;66956;-65
2022/08/04 06:31:58;;;;;;;;;;;;;;;24.08;78.65;97095.30;614781;229;63671;-64
2022/08/04 06:34:26;;;;;;;;;;;;;;;24.09;78.91;97096.91;615159;230;67054;-64
2022/08/04 06:36:53;;;;;;;;;;;;;;;24.10;79.49;97098.50;615265;230;66302;-64
2022/08/04 06:39:24;;;;;;;;;;;;;;;24.11;79.74;97091.23;615210;230;65111;-64
2022/08/04 06:41:54;;;;;;;;;;;;;;;24.12;80.05;97092.85;615192;230;66954;-65
2022/08/04 06:44:22;;;;;;;;;;;;;;;24.12;80.26;97093.65;615206;230;65756;-65
2022/08/04 06:46:52;;;;;;;;;;;;;;;24.12;80.38;97095.54;615156;229;63124;-63
2022/08/04 06:49:21;;;;;;;;;;;;;;;24.12;80.56;97093.65;615136;230;64391;-65
2022/08/04 06:51:49;;;;;;;;;;;;;;;24.09;74.75;97091.55;615204;230;66802;-64
2022/08/04 06:54:16;;;;;;;;;;;;;;;24.10;78.13;97089.66;615197;230;65034;-65
2022/08/04 06:56:44;;;;;;;;;;;;;;;24.09;79.21;97091.55;615173;230;66224;-66
2022/08/04 06:59:13;;;;;;;;;;;;;;;24.08;80.11;97086.45;615202;230;64776;-65
2022/08/04 07:01:42;;;;;;;;;;;;;;;24.08;80.65;97089.13;615203;230;64756;-64
2022/08/04 07:04:11;;;;;;;;;;;;;;;24.07;81.02;97088.34;615152;230;66920;-65
2022/08/04 07:06:39;;;;;;;;;;;;;;;24.06;81.21;97081.39;615138;230;66895;-65
2022/08/04 07:09:07;;;;;;;;;;;;;;;24.04;79.90;97088.92;615129;230;64936;-67
2022/08/04 07:11:35;;;;;;;;;;;;;;;24.06;78.97;97085.93;615172;230;67483;-64
2022/08/04 07:14:02;;;;;;;;;;;;;;;24.05;80.46;97093.19;615090;230;66827;-63
2022/08/04 07:16:30;;;;;;;;;;;;;;;24.05;80.87;97090.51;615114;229;65704;-69
2022/08/04 07:18:58;;;;;;;;;;;;;;;24.05;80.81;97090.51;615128;230;64864;-66
2022/08/04 07:21:26;;;;;;;;;;;;;;;24.05;80.78;97092.41;615120;230;67325;-67
2022/08/04 07:23:54;;;;;;;;;;;;;;;24.05;80.78;97087.03;614522;230;65109;-65
2022/08/04 07:26:23;;;;;;;;;;;;;;;24.05;75.15;97087.03;615149;230;64748;-65
2022/08/04 07:28:50;;;;;;;;;;;;;;;24.07;79.83;97087.55;615068;229;66903;-66
2022/08/04 07:31:19;;;;;;;;;;;;;;;24.06;80.37;97075.20;614970;230;62645;-66
2022/08/04 07:33:47;;;;;;;;;;;;;;;24.05;80.35;97079.77;615086;230;67066;-66
2022/08/04 07:36:14;;;;;;;;;;;;;;;24.05;80.34;97073.61;615003;230;67712;-70
2022/08/04 07:38:43;;;;;;;;;;;;;;;24.05;80.25;97073.61;615023;230;65150;-65
2022/08/04 07:41:10;;;;;;;;;;;;;;;24.05;80.33;97071.72;615075;230;67666;-66
2022/08/04 07:43:38;;;;;;;;;;;;;;;24.04;80.35;97067.45;615015;230;66907;-66
2022/08/04 07:46:06;;;;;;;;;;;;;;;24.05;80.48;97068.23;615059;230;62945;-67
2022/08/04 07:48:33;;;;;;;;;;;;;;;24.04;80.53;97072.81;614858;230;68000;-66
2022/08/04 07:51:01;;;;;;;;;;;;;;;24.04;80.59;97070.12;615185;228;66512;-65
2022/08/04 07:53:29;;;;;;;;;;;;;;;24.04;80.66;97066.66;617276;228;66301;-64
2022/08/04 07:55:57;;;;;;;;;;;;;;;24.04;80.68;97069.34;618259;228;64613;-64
2022/08/04 07:58:27;;;;;;;;;;;;;;;24.03;80.66;97065.83;618890;228;64986;-66
2022/08/04 08:00:54;;;;;;;;;;;;;;;24.03;80.70;97060.46;622099;228;62970;-64
2022/08/04 08:03:24;;;;;;;;;;;;;;;24.04;80.63;97070.12;622231;228;64517;-64
2022/08/04 08:05:52;;;;;;;;;;;;;;;24.04;80.68;97072.81;618114;228;66716;-66
2022/08/04 08:08:20;;;;;;;;;;;;;;;24.04;80.64;97072.02;620176;228;65709;-66
2022/08/04 08:10:48;;;;;;;;;;;;;;;24.04;80.63;97069.34;622137;228;64543;-66
2022/08/04 08:13:16;;;;;;;;;;;;;;;24.03;80.50;97065.04;622145;228;66902;-67
2022/08/04 08:15:45;;;;;;;;;;;;;;;24.03;80.55;97065.83;622128;226;65196;-68
2022/08/04 08:18:13;;;;;;;;;;;;;;;24.03;80.61;97068.52;622117;228;66735;-68
2022/08/04 08:20:42;;;;;;;;;;;;;;;24.04;80.71;97070.12;622130;228;64346;-68
2022/08/04 08:23:11;;;;;;;;;;;;;;;24.03;80.76;97071.20;622098;228;64885;-68
2022/08/04 08:25:38;;;;;;;;;;;;;;;24.03;80.71;97073.88;622131;228;67243;-68
2022/08/04 08:28:06;;;;;;;;;;;;;;;24.04;80.67;97074.70;621989;228;66947;-68
2022/08/04 08:30:34;;;;;;;;;;;;;;;24.04;80.69;97072.81;622182;228;62699;-74
2022/08/04 08:33:04;;;;;;;;;;;;;;;24.04;80.16;97070.12;622098;228;64545;-67
2022/08/04 08:35:33;;;;;;;;;;;;;;;24.04;79.49;97072.81;622083;228;66637;-67
2022/08/04 08:38:02;;;;;;;;;;;;;;;24.04;79.74;97069.34;622033;228;62398;-67
2022/08/04 08:40:38;;;;;;;;;;;;;;;24.04;80.15;97075.50;621987;228;66779;-67
2022/08/04 08:43:13;;;;;;;;;;;;;;;24.04;80.20;97072.81;618378;228;65402;-72
2022/08/04 08:45:51;;;;;;;;;;;;;;;24.04;79.95;97072.02;622140;228;64697;-71
2022/08/04 08:48:33;;;;;;;;;;;;;;;24.03;79.94;97073.09;622083;228;64878;-66
2022/08/04 08:51:18;;;;;;;;;;;;;;;24.02;79.02;97076.88;622055;228;66877;-66
2022/08/04 08:53:59;;;;;;;;;;;;;;;24.03;79.08;97067.72;622174;228;62708;-68
2022/08/04 08:56:35;;;;;;;;;;;;;;;24.03;79.74;97073.88;621831;227;64702;-67
2022/08/04 08:59:07;;;;;;;;;;;;;;;24.03;79.58;97071.20;622168;228;66641;-68
2022/08/04 09:01:42;;;;;;;;;;;;;;;24.03;79.96;97068.52;621881;227;65094;-68
2022/08/04 09:04:13;;;;;;;;;;;;;;;24.03;80.18;97065.04;622106;228;67056;-68
2022/08/04 09:06:45;;;;;;;;;;;;;;;24.03;80.30;97065.83;622006;227;63830;-68
2022/08/04 09:09:17;;;;;;;;;;;;;;;24.03;80.45;97063.14;622127;228;62693;-68
2022/08/04 09:11:56;;;;;;;;;;;;;;;24.03;80.50;97059.67;622040;228;64373;-67
2022/08/04 09:14:25;;;;;;;;;;;;;;;24.03;80.44;97059.67;622095;228;65633;-67
2022/08/04 09:16:55;;;;;;;;;;;;;;;24.04;80.58;97058.60;622120;226;62669;-67
2022/08/04 09:19:33;;;;;;;;;;;;;;;24.03;80.60;97060.46;621949;227;66774;-67
2022/08/04 09:22:05;;;;;;;;;;;;;;;24.04;80.66;97055.91;622052;227;66605;-67
2022/08/04 09:24:37;;;;;;;;;;;;;;;24.04;80.69;97055.91;621980;227;65155;-66
2022/08/04 09:27:06;;;;;;;;;;;;;;;24.04;80.76;97054.02;622015;227;66843;-68
2022/08/04 09:29:35;;;;;;;;;;;;;;;24.04;80.70;97058.60;621115;228;66756;-67
2022/08/04 09:32:04;;;;;;;;;;;;;;;24.11;76.60;97049.08;622050;228;64005;-69
2022/08/04 09:34:43;;;;;;;;;;;;;;;24.12;73.94;97052.58;622019;228;66674;-70
2022/08/04 09:37:18;;;;;;;;;;;;;;;24.12;75.49;97055.27;622109;228;67600;-66
2022/08/04 09:39:47;;;;;;;;;;;;;;;24.10;77.34;97047.48;621514;228;64891;-66
2022/08/04 09:42:33;;;;;;;;;;;;;;;24.10;72.40;97042.12;621515;228;67080;-70
2022/08/04 09:45:02;;;;;;;;;;;;;;;24.10;70.25;97041.33;622128;228;66655;-67
2022/08/04 09:47:38;;;;;;;;;;;;;;;24.11;75.87;97046.39;621624;228;63079;-67
2022/08/04 09:50:13;;;;;;;;;;;;;;;24.10;77.45;97041.33;621565;228;66753;-67
2022/08/04 09:52:48;;;;;;;;;;;;;;;24.09;78.54;97047.77;621468;227;64416;-67
2022/08/04 09:55:21;;;;;;;;;;;;;;;24.08;78.82;97054.23;621389;228;64816;-68
2022/08/04 09:57:53;;;;;;;;;;;;;;;24.07;79.01;97053.44;621317;228;64341;-68
2022/08/04 10:00:20;;;;;;;;;;;;;;;24.06;79.09;97045.66;619843;227;64312;-68
2022/08/04 10:02:49;;;;;;;;;;;;;;;24.06;79.18;97042.98;621889;228;62794;-68
2022/08/04 10:05:19;;;;;;;;;;;;;;;24.05;79.20;97047.55;622109;227;64730;-68
2022/08/04 10:08:04;;;;;;;;;;;;;;;24.05;79.24;97036.81;619954;227;64501;-68
2022/08/04 10:10:49;;;;;;;;;;;;;;;24.05;79.24;97038.70;618844;228;65035;-68
2022/08/04 10:13:27;;;;;;;;;;;;;;;24.05;79.24;97038.70;619151;228;64505;-69
2022/08/04 10:15:56;;;;;;;;;;;;;;;24.04;79.23;97042.49;624656;226;67050;-69
2022/08/04 10:18:41;;;;;;;;;;;;;;;24.04;79.21;97043.28;626716;226;62947;-73
2022/08/04 10:21:30;;;;;;;;;;;;;;;24.05;76.07;97039.50;626768;226;64740;-73
2022/08/04 10:24:16;;;;;;;;;;;;;;;24.04;73.32;97040.59;625845;226;67184;-69
2022/08/04 10:26:55;;;;;;;;;;;;;;;24.05;72.33;97036.81;626765;226;65348;-69
2022/08/04 10:29:23;;;;;;;;;;;;;;;24.06;73.71;97042.98;626688;226;66832;-68
2022/08/04 10:31:53;;;;;;;;;;;;;;;24.06;77.07;97034.92;626673;226;64656;-69
2022/08/04 10:34:22;;;;;;;;;;;;;;;24.06;77.95;97040.30;625754;226;65270;-69
2022/08/04 10:36:51;;;;;;;;;;;;;;;24.05;78.62;97036.81;626725;226;67147;-69
2022/08/04 10:39:20;;;;;;;;;;;;;;;24.05;74.05;97041.39;626759;226;66814;-65
2022/08/04 10:41:55;;;;;;;;;;;;;;;24.05;74.71;97041.39;626776;226;66103;-69
2022/08/04 10:44:33;;;;;;;;;;;;;;;24.05;76.57;97036.81;626667;226;64665;-70
2022/08/04 10:47:02;;;;;;;;;;;;;;;24.06;78.55;97030.38;620249;226;64090;-67
2022/08/04 10:49:31;;;;;;;;;;;;;;;24.06;78.91;97029.55;626807;226;65024;-67
2022/08/04 10:52:03;;;;;;;;;;;;;;;24.06;79.40;97029.55;626733;226;66331;-67
2022/08/04 10:54:44;;;;;;;;;;;;;;;24.04;78.52;97026.39;626783;226;66473;-67
2022/08/04 10:57:21;;;;;;;;;;;;;;;24.05;79.15;97025.28;626753;226;66085;-69
2022/08/04 10:59:53;;;;;;;;;;;;;;;24.05;79.63;97036.81;626807;226;67077;-69
2022/08/04 11:02:22;;;;;;;;;;;;;;;24.04;79.56;97029.86;626548;226;66543;-70
2022/08/04 11:04:51;;;;;;;;;;;;;;;24.04;79.66;97037.92;626439;226;64874;-70
2022/08/04 11:07:19;;;;;;;;;;;;;;;24.05;79.80;97042.19;626073;226;64304;-70
2022/08/04 11:09:47;;;;;;;;;;;;;;;24.05;79.89;97038.70;626729;226;64239;-69
2022/08/04 11:12:16;;;;;;;;;;;;;;;24.05;79.93;97036.02;625809;226;64840;-70
2022/08/04 11:14:45;;;;;;;;;;;;;;;24.06;79.90;97037.61;626698;226;67790;-68
2022/08/04 11:17:14;;;;;;;;;;;;;;;24.05;79.98;97033.34;626323;226;67507;-68
2022/08/04 11:19:43;;;;;;;;;;;;;;;24.06;79.97;97035.75;626620;226;65052;-69
2022/08/04 11:22:15;;;;;;;;;;;;;;;24.06;80.00;97035.75;621147;226;64058;-69
2022/08/04 11:24:47;;;;;;;;;;;;;;;24.06;80.03;97029.55;626712;226;66700;-69
2022/08/04 11:27:16;;;;;;;;;;;;;;;24.06;80.04;97029.55;626498;226;65099;-68
2022/08/04 11:30:02;;;;;;;;;;;;;;;24.06;80.06;97032.24;626803;226;65487;-68
2022/08/04 11:32:47;;;;;;;;;;;;;;;24.06;80.09;97029.55;626572;226;66700;-68
2022/08/04 11:35:16;;;;;;;;;;;;;;;24.05;80.10;97026.08;626215;226;63052;-68
2022/08/04 11:37:51;;;;;;;;;;;;;;;24.07;80.14;97028.48;625561;226;66728;-68
2022/08/04 11:40:23;;;;;;;;;;;;;;;24.06;80.26;97019.64;626481;226;64178;-74
2022/08/04 11:42:58;;;;;;;;;;;;;;;24.06;80.30;97016.13;626712;226;63736;-72
2022/08/04 11:45:30;;;;;;;;;;;;;;;24.06;80.30;97022.33;626756;226;66823;-73
2022/08/04 11:47:59;;;;;;;;;;;;;;;24.06;80.31;97016.13;626158;226;66803;-72
2022/08/04 11:50:31;;;;;;;;;;;;;;;24.06;80.30;97010.77;626737;226;64751;-72
2022/08/04 11:53:00;;;;;;;;;;;;;;;24.05;80.30;97012.66;626650;226;64483;-70
2022/08/04 11:55:28;;;;;;;;;;;;;;;24.06;80.40;97010.77;626694;226;66792;-68
2022/08/04 11:57:56;;;;;;;;;;;;;;;24.05;80.13;97007.28;626168;226;62756;-69
2022/08/04 12:00:25;;;;;;;;;;;;;;;24.06;80.51;96998.16;626723;226;64577;-69
2022/08/04 12:03:03;;;;;;;;;;;;;;;24.07;80.36;96996.27;626495;226;67277;-69
2022/08/04 12:05:32;;;;;;;;;;;;;;;24.06;80.42;96986.60;623342;226;62751;-69
2022/08/04 12:08:04;;;;;;;;;;;;;;;24.06;80.34;96987.42;621402;226;66771;-69
2022/08/04 12:10:49;;;;;;;;;;;;;;;24.06;80.03;96990.11;619488;229;66916;-69
2022/08/04 12:13:26;;;;;;;;;;;;;;;24.06;78.37;96983.92;619511;228;47581;-68
2022/08/04 12:15:59;;;;;;;;;;;;;;;24.07;75.50;96990.91;619375;229;67343;-70
2022/08/04 12:18:34;;;;;;;;;;;;;;;24.08;76.35;96997.86;618835;229;66916;-70
2022/08/04 12:21:03;;;;;;;;;;;;;;;24.08;77.16;96989.80;619480;229;62748;-71
2022/08/04 12:23:32;;;;;;;;;;;;;;;24.08;78.22;96993.28;619428;229;64849;-69
2022/08/04 12:26:01;;;;;;;;;;;;;;;24.08;79.25;96993.28;619561;229;66866;-69
2022/08/04 12:28:33;;;;;;;;;;;;;;;24.08;79.56;96993.28;619528;228;66131;-70
2022/08/04 12:31:02;;;;;;;;;;;;;;;24.07;75.77;96993.59;619621;229;67038;-67
2022/08/04 12:33:30;;;;;;;;;;;;;;;24.07;75.87;96997.06;619538;229;64601;-67
2022/08/04 12:36:02;;;;;;;;;;;;;;;24.08;76.85;96992.48;619380;228;62906;-71
2022/08/04 12:38:32;;;;;;;;;;;;;;;24.11;77.59;96991.90;619444;228;67344;-68
2022/08/04 12:41:04;;;;;;;;;;;;;;;24.10;72.48;96990.31;619537;229;43414;-68
2022/08/04 12:43:36;;;;;;;;;;;;;;;24.10;74.45;96975.00;619546;229;65081;-67
2022/08/04 12:46:08;;;;;;;;;;;;;;;24.11;77.10;96976.58;619235;226;67417;-67
2022/08/04 12:48:37;;;;;;;;;;;;;;;24.09;77.70;96967.22;621268;226;67922;-68
2022/08/04 12:51:07;;;;;;;;;;;;;;;24.08;78.03;96963.75;623218;226;62838;-68
2022/08/04 12:53:36;;;;;;;;;;;;;;;24.08;78.32;96965.64;622722;226;66944;-68
2022/08/04 12:56:04;;;;;;;;;;;;;;;24.07;78.44;96956.80;625380;226;66610;-68
2022/08/04 12:58:33;;;;;;;;;;;;;;;24.08;74.27;96954.91;626597;226;63141;-68
2022/08/04 13:01:03;;;;;;;;;;;;;;;24.11;72.53;96954.31;626636;226;64858;-67
2022/08/04 13:03:38;;;;;;;;;;;;;;;24.11;75.40;96955.11;626370;226;65372;-68
2022/08/04 13:06:06;;;;;;;;;;;;;;;24.11;77.12;96955.11;626670;226;62970;-68
2022/08/04 13:08:35;;;;;;;;;;;;;;;24.10;78.15;96958.89;623502;226;67211;-68
2022/08/04 13:11:03;;;;;;;;;;;;;;;24.10;78.46;96958.09;622025;226;64737;-68
2022/08/04 13:13:32;;;;;;;;;;;;;;;24.09;78.52;96962.67;624255;226;65095;-68
2022/08/04 13:16:01;;;;;;;;;;;;;;;24.09;78.67;96961.85;619709;226;67190;-66